Nrp Polar — CTEJ — position and weather

sailwx.info

Track history (hours):
 
Tides and Currents Weather Stations Pressure Air Temp Water Temp Dewpoint Dewpoint Depression Visibility Wind Speed Wind Dir Waves Ship Positions

Nrp Polar

Last reported at 2015-Aug-21 12:33 UTC. Time now 2015-Sep-02 02:27 UTC.
Position N 38°40' W 009°09'.
Warning: this ship's position is 11 days out of date.

; draft 3 m.

Type: Sailing vessel. MMSI: 263142000.

Date/timePositionNaut miles runAvg speedWind from/ knotsBaromVisibWave heightAir tempDewpointWater temp
2015-Aug-21 12:33N 38°40' W 009°09'2 1.8
2015-Aug-21 11:33N 38°41' W 009°11'5 5.2
2015-Aug-21 10:32N 38°40' W 009°18'6 5.6
2015-Aug-21 09:32N 38°35' W 009°18'6 6.5
2015-Aug-21 08:33N 38°29' W 009°16'6 5.9
2015-Aug-21 07:33N 38°24' W 009°11'8 7.2
2015-Aug-21 06:31N 38°26' W 009°01'6 6.3
2015-Aug-21 05:33N 38°30' W 008°55'1 0.0
2015-Aug-19 16:33N 38°30' W 008°54'6 5.6
2015-Aug-19 15:33N 38°25' W 008°59'7 7.0
2015-Aug-19 14:33N 38°18' W 008°59'7 6.9
2015-Aug-19 13:33N 38°11' W 008°59'7 6.9
2015-Aug-19 12:33N 38°04' W 008°58'7 6.6
2015-Aug-19 11:32N 37°58' W 008°57'6 6.4
2015-Aug-19 10:33N 37°52' W 008°58'7 6.6
2015-Aug-19 09:33N 37°45' W 008°59'6 6.5
2015-Aug-19 08:33N 37°39' W 008°60'7 6.4
2015-Aug-19 07:32N 37°32' W 009°01'6 6.1
2015-Aug-19 06:29N 37°26' W 009°00'6 6.2
2015-Aug-19 05:32N 37°20' W 009°00'6 6.0
2015-Aug-19 04:33N 37°14' W 009°00'15 5.0
2015-Aug-19 01:33N 36°59' W 008°57'1 0.9
2015-Aug-19 00:33N 37°00' W 008°57'0 0.0
2015-Aug-18 23:33N 37°00' W 008°57'0 0.0
2015-Aug-18 22:33N 37°00' W 008°57'0 0.0
2015-Aug-18 21:33N 37°00' W 008°57'0 0.0
2015-Aug-18 20:33N 37°00' W 008°57'0 0.0
2015-Aug-18 19:33N 37°00' W 008°57'0 0.0
2015-Aug-18 18:33N 37°00' W 008°57'5 2.2
2015-Aug-18 16:21N 37°01' W 008°51'5 6.3
2015-Aug-18 15:33N 37°02' W 008°45'6 5.9
2015-Aug-18 14:33N 37°04' W 008°38'5 5.3
2015-Aug-18 13:33N 37°07' W 008°32'1 0.0
2015-Aug-17 11:14N 37°07' W 008°32'0 0.0
2015-Aug-17 10:33N 37°07' W 008°32'5 4.6
2015-Aug-17 09:33N 37°04' W 008°27'7 6.7
2015-Aug-17 08:34N 37°03' W 008°19'7 6.7
2015-Aug-17 07:33N 37°03' W 008°11'  
2015-Aug-13 03:33N 36°55' W 008°05'4 3.7
2015-Aug-13 02:31N 36°53' W 008°01'4 3.7
2015-Aug-13 01:33N 36°52' W 007°56'  
Track history (hours):
 
Tides and Currents Weather Stations Pressure Air Temp Water Temp Dewpoint Dewpoint Depression Visibility Wind Speed Wind Dir Waves Ship Positions

Nrp Polar

Last reported at 2015-Aug-21 12:33 UTC. Time now 2015-Sep-02 02:27 UTC.
Position N 38°40' W 009°09'.
Warning: this ship's position is 11 days out of date.

; draft 3 m.

Type: Sailing vessel. MMSI: 263142000.

Date/timePositionNaut miles runAvg speedWind from/ knotsBaromVisibWave heightAir tempDewpointWater temp
2015-Aug-21 12:33N 38°40' W 009°09'2 1.8
2015-Aug-21 11:33N 38°41' W 009°11'5 5.2
2015-Aug-21 10:32N 38°40' W 009°18'6 5.6
2015-Aug-21 09:32N 38°35' W 009°18'6 6.5
2015-Aug-21 08:33N 38°29' W 009°16'6 5.9
2015-Aug-21 07:33N 38°24' W 009°11'8 7.2
2015-Aug-21 06:31N 38°26' W 009°01'6 6.3
2015-Aug-21 05:33N 38°30' W 008°55'1 0.0
2015-Aug-19 16:33N 38°30' W 008°54'6 5.6
2015-Aug-19 15:33N 38°25' W 008°59'7 7.0
2015-Aug-19 14:33N 38°18' W 008°59'7 6.9
2015-Aug-19 13:33N 38°11' W 008°59'7 6.9
2015-Aug-19 12:33N 38°04' W 008°58'7 6.6
2015-Aug-19 11:32N 37°58' W 008°57'6 6.4
2015-Aug-19 10:33N 37°52' W 008°58'7 6.6
2015-Aug-19 09:33N 37°45' W 008°59'6 6.5
2015-Aug-19 08:33N 37°39' W 008°60'7 6.4
2015-Aug-19 07:32N 37°32' W 009°01'6 6.1
2015-Aug-19 06:29N 37°26' W 009°00'6 6.2
2015-Aug-19 05:32N 37°20' W 009°00'6 6.0
2015-Aug-19 04:33N 37°14' W 009°00'15 5.0
2015-Aug-19 01:33N 36°59' W 008°57'1 0.9
2015-Aug-19 00:33N 37°00' W 008°57'0 0.0
2015-Aug-18 23:33N 37°00' W 008°57'0 0.0
2015-Aug-18 22:33N 37°00' W 008°57'0 0.0
2015-Aug-18 21:33N 37°00' W 008°57'0 0.0
2015-Aug-18 20:33N 37°00' W 008°57'0 0.0
2015-Aug-18 19:33N 37°00' W 008°57'0 0.0
2015-Aug-18 18:33N 37°00' W 008°57'5 2.2
2015-Aug-18 16:21N 37°01' W 008°51'5 6.3
2015-Aug-18 15:33N 37°02' W 008°45'6 5.9
2015-Aug-18 14:33N 37°04' W 008°38'5 5.3
2015-Aug-18 13:33N 37°07' W 008°32'1 0.0
2015-Aug-17 11:14N 37°07' W 008°32'0 0.0
2015-Aug-17 10:33N 37°07' W 008°32'5 4.6
2015-Aug-17 09:33N 37°04' W 008°27'7 6.7
2015-Aug-17 08:34N 37°03' W 008°19'7 6.7
2015-Aug-17 07:33N 37°03' W 008°11'  
2015-Aug-13 03:33N 36°55' W 008°05'4 3.7
2015-Aug-13 02:31N 36°53' W 008°01'4 3.7
2015-Aug-13 01:33N 36°52' W 007°56'  

Dump ship's entire track history